Time;durP1;ratioP1;P1;durP2;ratioP2;P2;SDS_P1;SDS_P2;PMS_P1;PMS_P2;Temp;Humidity;BMP_temperature;BMP_pressure;BME280_temperature;BME280_humidity;BME280_pressure;Samples;Min_cycle;Max_cycle;Signal;HPM_P1;HPM_P2
2021/05/09 00:01:37;;;;;;;;;;;;;;;;;;;;;
2021/05/09 00:09:02;;;;;;;;;;;;;;;;;;;;;
2021/05/09 00:12:17;;;;;;;10.13;5.85;;;;;;;10.59;67.21;99932.47;4936236;28;20094;-84
2021/05/09 00:14:48;;;;;;;8.48;5.90;;;;;;;10.57;67.50;99926.41;5081827;28;20037;-85
2021/05/09 00:17:17;;;;;;;8.65;6.32;;;;;;;10.43;67.20;99907.78;5086282;28;20119;-82
2021/05/09 00:20:09;;;;;;;9.68;6.03;;;;;;;10.42;67.46;99914.00;5108603;28;20047;-85
2021/05/09 00:26:55;;;;;;;8.52;5.57;;;;;;;10.24;68.10;99904.41;5022451;28;20048;-84
2021/05/09 00:33:30;;;;;;;7.75;5.82;;;;;;;10.22;68.12;99908.94;4942311;29;20047;-84
2021/05/09 00:35:58;;;;;;;6.82;5.55;;;;;;;10.21;68.00;99905.44;4962967;28;20109;-85
2021/05/09 00:51:21;;;;;;;9.40;5.63;;;;;;;10.10;68.24;99879.50;4948607;29;20070;-85
2021/05/09 00:54:39;;;;;;;7.35;5.82;;;;;;;10.06;68.49;99872.69;4894905;28;20123;-83
2021/05/09 00:57:54;;;;;;;7.32;5.57;;;;;;;9.97;68.93;99867.00;4948669;29;20450;-85
2021/05/09 01:01:26;;;;;;;8.63;5.50;;;;;;;9.87;69.39;99861.34;4943317;29;20419;-86
2021/05/09 01:04:30;;;;;;;7.65;5.70;;;;;;;9.88;69.12;99854.28;4908410;29;20081;-86
2021/05/09 01:06:56;;;;;;;7.43;5.28;;;;;;;9.89;69.39;99856.84;4902645;29;20044;-83
2021/05/09 01:09:27;;;;;;;7.63;5.57;;;;;;;9.67;69.11;99821.88;4903657;29;20257;-83
2021/05/09 01:13:14;;;;;;;7.20;5.55;;;;;;;9.85;69.59;99853.50;4852104;29;20049;-84
2021/05/09 01:16:29;;;;;;;7.28;5.13;;;;;;;9.84;69.51;99846.50;4878801;29;20049;-85
2021/05/09 01:19:07;;;;;;;8.23;5.50;;;;;;;9.91;69.39;99849.69;4837436;29;20084;-83
2021/05/09 01:21:33;;;;;;;8.15;5.18;;;;;;;9.94;69.33;99846.84;4961235;28;20044;-83
2021/05/09 01:23:59;;;;;;;8.25;5.63;;;;;;;9.73;69.16;99811.84;4968403;28;20051;-84
2021/05/09 01:26:51;;;;;;;6.40;5.53;;;;;;;9.87;69.40;99829.63;4945687;29;20268;-84
2021/05/09 01:29:49;;;;;;;;;;;;;;;;;;;;;
2021/05/09 01:33:12;;;;;;;8.10;6.47;;;;;;;9.88;69.56;99830.47;4964234;28;19929;-83
2021/05/09 01:35:49;;;;;;;7.38;5.80;;;;;;;9.84;70.20;99841.22;4918057;28;20072;-84
2021/05/09 01:38:54;;;;;;;7.77;5.40;;;;;;;9.82;70.15;99832.50;4962750;28;20047;-83
2021/05/09 01:42:08;;;;;;;7.75;5.38;;;;;;;9.81;70.27;99838.72;5015060;28;20496;-84
2021/05/09 01:44:57;;;;;;;9.07;5.82;;;;;;;9.60;70.43;99808.13;5030329;28;20075;-85
2021/05/09 01:47:56;;;;;;;8.32;5.97;;;;;;;9.76;70.46;99831.97;5037007;28;20057;-83
2021/05/09 01:54:50;;;;;;;7.70;5.65;;;;;;;9.49;70.73;99832.47;4944874;28;20051;-82
2021/05/09 01:57:17;;;;;;;5.85;5.00;;;;;;;9.37;70.78;99825.19;4989050;28;20080;-83
2021/05/09 02:00:11;;;;;;;8.45;5.78;;;;;;;9.48;71.32;99836.03;5020948;28;20045;-83
2021/05/09 02:02:53;;;;;;;8.13;5.97;;;;;;;9.40;71.02;99834.75;5041284;28;20053;-84
2021/05/09 02:10:08;;;;;;;7.57;5.50;;;;;;;9.34;71.44;99830.59;4967739;28;20059;-83
2021/05/09 02:12:35;;;;;;;9.57;5.90;;;;;;;9.28;71.42;99823.00;4968765;28;20109;-85
2021/05/09 02:15:09;;;;;;;7.38;5.43;;;;;;;9.26;71.91;99805.53;4989690;28;20030;-84
2021/05/09 02:18:05;;;;;;;7.63;5.65;;;;;;;9.29;72.10;99816.78;5005790;28;20041;-83
2021/05/09 02:22:06;;;;;;;8.95;5.95;;;;;;;9.29;72.01;99819.41;5034083;28;20041;-86
2021/05/09 02:25:01;;;;;;;7.03;5.63;;;;;;;9.20;72.67;99821.69;5048111;28;20053;-85
2021/05/09 02:28:29;;;;;;;9.60;6.00;;;;;;;9.22;72.74;99820.66;5048034;28;20046;-84
2021/05/09 02:30:58;;;;;;;7.20;5.38;;;;;;;9.27;72.55;99821.31;5028159;28;20084;-82
2021/05/09 02:34:27;;;;;;;;;;;;;;;;;;;;;
2021/05/09 02:38:09;;;;;;;10.02;5.88;;;;;;;9.33;72.33;99822.75;5049233;28;20067;-84
2021/05/09 02:41:48;;;;;;;9.68;6.25;;;;;;;9.35;72.13;99828.81;4985425;28;20044;-83
2021/05/09 02:45:44;;;;;;;7.55;5.95;;;;;;;9.40;72.40;99825.03;5046162;28;20032;-84
2021/05/09 02:52:25;;;;;;;8.10;5.38;;;;;;;9.31;72.18;99825.47;4948547;28;20053;-83
2021/05/09 02:54:53;;;;;;;6.55;5.10;;;;;;;9.10;72.38;99794.88;4978442;28;20046;-83
2021/05/09 02:57:19;;;;;;;8.00;5.80;;;;;;;9.03;72.90;99774.97;5049540;28;20041;-84
2021/05/09 03:04:09;;;;;;;7.38;5.53;;;;;;;9.33;73.09;99820.97;5041476;28;20047;-84
2021/05/09 03:07:41;;;;;;;7.03;4.95;;;;;;;9.18;72.96;99792.69;5037132;28;20758;-85
2021/05/09 03:10:38;;;;;;;5.53;4.95;;;;;;;9.33;73.27;99822.75;4967544;28;20042;-83
2021/05/09 03:20:43;;;;;;;5.65;5.00;;;;;;;9.37;72.97;99825.19;5044417;28;20057;-85
2021/05/09 03:23:10;;;;;;;7.03;5.20;;;;;;;9.34;72.78;99813.91;5045259;28;20064;-84
2021/05/09 03:25:39;;;;;;;6.50;4.97;;;;;;;9.35;72.76;99811.19;5046172;28;20045;-84
2021/05/09 03:28:39;;;;;;;8.65;5.45;;;;;;;9.37;72.61;99819.88;5039529;28;20046;-85
2021/05/09 03:31:06;;;;;;;7.82;5.00;;;;;;;9.24;72.95;99797.69;5017272;28;20056;-83
2021/05/09 03:33:34;;;;;;;6.57;5.05;;;;;;;9.33;73.24;99812.19;5032192;28;20105;-83
2021/05/09 03:36:00;;;;;;;8.32;5.57;;;;;;;9.39;72.62;99817.16;5036321;28;20041;-83
2021/05/09 03:38:34;;;;;;;7.32;5.68;;;;;;;9.27;73.21;99792.25;5019304;28;20404;-83
2021/05/09 03:41:00;;;;;;;6.88;5.53;;;;;;;9.18;72.88;99782.13;5025668;28;20049;-83
2021/05/09 03:43:35;;;;;;;7.55;5.50;;;;;;;9.33;72.94;99810.41;5029528;28;20045;-84
2021/05/09 03:46:01;;;;;;;6.90;5.32;;;;;;;9.11;73.36;99783.38;5037318;28;20053;-84
2021/05/09 03:48:28;;;;;;;7.20;5.38;;;;;;;9.29;73.46;99811.47;5031168;28;20096;-84
2021/05/09 03:50:54;;;;;;;6.85;5.18;;;;;;;9.23;73.77;99795.09;5031056;28;20045;-83
2021/05/09 03:53:21;;;;;;;5.20;4.70;;;;;;;9.33;73.00;99807.75;5082994;28;20052;-83
2021/05/09 03:55:52;;;;;;;6.60;4.93;;;;;;;9.26;73.05;99792.31;5110554;28;20048;-84
2021/05/09 03:58:19;;;;;;;13.30;9.85;;;;;;;9.26;73.22;99790.53;5089614;28;20052;-83
2021/05/09 04:00:47;;;;;;;6.25;5.07;;;;;;;9.30;73.13;99794.69;5093795;28;20392;-83
2021/05/09 04:03:32;;;;;;;5.38;4.80;;;;;;;9.26;73.53;99785.25;5087991;28;20602;-84
2021/05/09 04:05:59;;;;;;;6.03;4.70;;;;;;;9.40;73.21;99811.81;5095005;28;20542;-83
2021/05/09 04:08:27;;;;;;;6.65;5.30;;;;;;;9.42;72.58;99799.38;5072100;28;20070;-83
2021/05/09 04:10:56;;;;;;;8.57;5.05;;;;;;;9.53;72.71;99806.75;5087830;28;20880;-82
2021/05/09 04:13:23;;;;;;;6.63;4.60;;;;;;;9.49;71.98;99799.91;5092628;28;20047;-82
2021/05/09 04:15:50;;;;;;;6.30;5.25;;;;;;;9.58;72.86;99807.38;5073900;28;20048;-84
2021/05/09 04:18:17;;;;;;;6.75;4.90;;;;;;;9.65;72.37;99806.09;5075592;28;20521;-83
2021/05/09 04:20:46;;;;;;;6.50;4.85;;;;;;;9.69;71.98;99810.28;5087252;28;20040;-83
2021/05/09 04:23:21;;;;;;;5.88;5.25;;;;;;;9.79;72.01;99818.59;5086922;28;20716;-83
2021/05/09 04:25:53;;;;;;;9.50;5.25;;;;;;;9.88;72.05;99823.41;5071364;28;20517;-83
2021/05/09 04:28:20;;;;;;;6.43;5.10;;;;;;;9.81;71.59;99804.34;5063582;28;20112;-84
2021/05/09 04:30:51;;;;;;;5.93;5.10;;;;;;;9.87;71.23;99805.81;5085129;28;20086;-84
2021/05/09 04:33:18;;;;;;;;;;;;;;;10.03;71.27;99817.28;5086227;28;20044;-83
2021/05/09 04:35:47;;;;;;;6.78;4.95;;;;;;;10.08;71.35;99812.59;5085322;28;19956;-84
2021/05/09 04:38:13;;;;;;;6.65;5.07;;;;;;;10.13;71.30;99817.63;5087041;28;20151;-84
2021/05/09 04:40:40;;;;;;;6.50;5.28;;;;;;;10.10;71.19;99801.94;5092823;28;20090;-84
2021/05/09 04:43:11;;;;;;;7.72;5.10;;;;;;;10.18;71.34;99808.56;5089724;28;20104;-84
2021/05/09 04:45:55;;;;;;;5.88;5.10;;;;;;;10.26;71.48;99817.84;5077173;28;20048;-84
2021/05/09 04:48:24;;;;;;;6.53;5.07;;;;;;;10.32;70.94;99821.03;5091132;28;20131;-84
2021/05/09 04:50:53;;;;;;;7.55;5.05;;;;;;;10.41;70.47;99828.44;5103832;28;20062;-83
2021/05/09 04:53:38;;;;;;;6.88;5.28;;;;;;;10.49;69.87;99818.31;5089146;28;20048;-83
2021/05/09 04:56:17;;;;;;;7.05;5.18;;;;;;;10.52;68.84;99831.38;5099776;28;20047;-84
2021/05/09 04:58:44;;;;;;;5.85;5.03;;;;;;;10.56;69.16;99834.69;5099910;28;20070;-83
2021/05/09 05:01:13;;;;;;;5.93;4.68;;;;;;;10.62;69.15;99834.34;5098653;28;20431;-83
2021/05/09 05:03:47;;;;;;;8.02;5.13;;;;;;;10.73;68.53;99831.94;5076885;28;20032;-83
2021/05/09 05:06:16;;;;;;;10.85;4.93;;;;;;;10.80;67.62;99820.06;5079383;28;20055;-83
2021/05/09 05:08:43;;;;;;;5.80;5.18;;;;;;;10.89;66.97;99818.69;5098151;28;20062;-83
2021/05/09 05:11:11;;;;;;;6.25;5.05;;;;;;;10.95;66.17;99804.25;5093382;28;20101;-82
2021/05/09 05:13:38;;;;;;;6.10;4.97;;;;;;;11.10;65.77;99813.94;5076261;28;20044;-83
2021/05/09 05:16:09;;;;;;;5.57;4.90;;;;;;;11.16;65.65;99816.25;5096803;28;20058;-82
2021/05/09 05:18:36;;;;;;;6.22;4.70;;;;;;;11.23;65.30;99810.50;5097418;28;20048;-84
2021/05/09 05:21:06;;;;;;;5.22;4.72;;;;;;;11.41;64.95;99816.50;5072198;28;20055;-82
2021/05/09 05:23:36;;;;;;;6.55;5.18;;;;;;;11.58;64.64;99820.78;5079231;28;20551;-84
2021/05/09 05:26:03;;;;;;;5.63;4.90;;;;;;;11.75;63.86;99819.78;5097436;28;20040;-84
2021/05/09 05:28:30;;;;;;;7.85;5.00;;;;;;;11.93;63.14;99813.38;5105604;28;20032;-84
2021/05/09 05:31:06;;;;;;;5.97;5.05;;;;;;;12.09;62.35;99810.63;5100151;28;20040;-84
2021/05/09 05:33:34;;;;;;;7.63;4.78;;;;;;;12.21;62.32;99810.72;5086729;28;20044;-82
2021/05/09 05:36:04;;;;;;;6.55;4.60;;;;;;;12.37;61.44;99812.41;5101284;28;20093;-84
2021/05/09 05:38:33;;;;;;;6.47;5.13;;;;;;;12.41;61.10;99811.25;5110083;28;20032;-85
2021/05/09 05:41:01;;;;;;;7.05;4.97;;;;;;;12.46;60.84;99822.41;5110916;28;20109;-85
2021/05/09 05:43:33;;;;;;;6.07;5.03;;;;;;;12.47;60.41;99816.16;5112690;27;20039;-84
2021/05/09 05:46:00;;;;;;;5.82;4.75;;;;;;;12.57;61.07;99823.47;5116756;28;20064;-84
2021/05/09 05:48:27;;;;;;;6.30;4.68;;;;;;;12.62;59.71;99813.38;5115250;28;20035;-84
2021/05/09 05:50:55;;;;;;;5.38;4.25;;;;;;;12.69;60.00;99819.16;5110222;28;20056;-83
2021/05/09 05:53:25;;;;;;;14.60;5.03;;;;;;;12.75;59.80;99823.22;5121286;28;20051;-84
2021/05/09 05:55:55;;;;;;;4.82;3.90;;;;;;;12.84;59.45;99820.81;5114374;28;20043;-84
2021/05/09 05:58:22;;;;;;;5.40;4.18;;;;;;;12.99;59.64;99832.25;5100612;28;20059;-84
2021/05/09 06:00:51;;;;;;;4.80;4.25;;;;;;;13.12;59.28;99822.50;5106148;28;20047;-84
2021/05/09 06:03:20;;;;;;;8.13;4.55;;;;;;;13.25;58.34;99799.47;5108335;28;20044;-84
2021/05/09 06:05:47;;;;;;;4.70;3.92;;;;;;;13.40;57.98;99807.38;5107325;28;20055;-84
2021/05/09 06:08:16;;;;;;;6.85;4.30;;;;;;;13.53;57.42;99801.16;5108130;28;20047;-84
2021/05/09 06:10:44;;;;;;;4.80;4.03;;;;;;;14.09;57.50;99800.78;5112934;28;20055;-84
2021/05/09 06:13:15;;;;;;;4.88;4.38;;;;;;;16.14;51.32;99786.16;5109947;28;20055;-84
2021/05/09 06:15:43;;;;;;;5.32;4.28;;;;;;;18.62;45.12;99800.88;5091609;28;20262;-84
2021/05/09 06:18:09;;;;;;;6.45;4.55;;;;;;;20.67;38.96;99800.28;5091681;28;20101;-84
2021/05/09 06:20:35;;;;;;;5.15;4.03;;;;;;;22.11;36.55;99795.50;5108322;28;20055;-84
2021/05/09 06:23:03;;;;;;;5.13;3.90;;;;;;;23.03;34.75;99771.22;5120375;28;20040;-84
2021/05/09 06:25:31;;;;;;;4.45;3.75;;;;;;;23.84;31.73;99781.19;5117537;27;20566;-85
2021/05/09 06:28:03;;;;;;;5.93;4.18;;;;;;;24.32;31.48;99779.41;5114193;28;20024;-84
2021/05/09 06:30:31;;;;;;;3.75;3.20;;;;;;;25.45;30.74;99784.16;5113372;28;20039;-84
2021/05/09 06:32:59;;;;;;;3.70;3.38;;;;;;;26.40;28.30;99781.69;5119097;27;20038;-83
2021/05/09 06:35:37;;;;;;;4.72;3.20;;;;;;;26.44;28.32;99783.00;5113962;28;20032;-84
2021/05/09 06:38:06;;;;;;;4.05;3.65;;;;;;;26.54;27.17;99789.00;5109376;28;20048;-84
2021/05/09 06:40:34;;;;;;;3.55;3.10;;;;;;;26.39;27.74;99779.19;5097426;28;20036;-84
2021/05/09 06:43:04;;;;;;;4.57;3.63;;;;;;;26.67;27.82;99780.16;5100891;28;20410;-84
2021/05/09 06:45:33;;;;;;;4.15;3.15;;;;;;;26.23;27.70;99787.47;5089375;28;20074;-85
2021/05/09 06:48:02;;;;;;;;;;;;;;;26.93;27.41;99779.59;5095444;28;20628;-85
2021/05/09 06:50:33;;;;;;;4.10;3.20;;;;;;;27.34;26.57;99779.03;5095372;28;19935;-85
2021/05/09 06:53:04;;;;;;;3.57;3.27;;;;;;;27.34;26.47;99779.88;5078241;28;20044;-84
2021/05/09 06:55:31;;;;;;;3.03;2.83;;;;;;;27.84;26.20;99758.97;5075150;28;20048;-87
2021/05/09 06:58:02;;;;;;;3.20;2.90;;;;;;;28.54;24.68;99772.38;5075828;28;20045;-84
2021/05/09 07:00:29;;;;;;;4.00;2.72;;;;;;;28.41;25.22;99790.53;5105876;28;20048;-83
2021/05/09 07:02:56;;;;;;;3.60;2.78;;;;;;;28.62;25.10;99784.97;5105006;28;20116;-84
2021/05/09 07:05:24;;;;;;;3.20;2.90;;;;;;;28.81;25.07;99788.84;5102211;28;20036;-82
2021/05/09 07:07:55;;;;;;;2.83;2.50;;;;;;;28.34;24.39;99784.19;5092473;28;20044;-82
2021/05/09 07:10:26;;;;;;;3.33;2.47;;;;;;;28.13;25.75;99787.84;5096007;28;20599;-82
2021/05/09 07:13:07;;;;;;;4.28;2.55;;;;;;;28.84;23.90;99770.19;5100249;28;20055;-82
2021/05/09 07:15:40;;;;;;;2.75;2.47;;;;;;;28.84;25.06;99772.09;5099779;28;20067;-83
2021/05/09 07:18:14;;;;;;;3.35;2.80;;;;;;;28.96;24.38;99768.53;5091020;28;20040;-85
2021/05/09 07:20:46;;;;;;;4.90;2.70;;;;;;;29.25;23.64;99758.34;5077420;28;20094;-84
2021/05/09 07:23:18;;;;;;;4.90;2.88;;;;;;;29.05;23.82;99769.22;5096916;28;20422;-84
2021/05/09 07:26:10;;;;;;;2.50;2.30;;;;;;;28.45;24.83;99761.84;5093850;28;20039;-84
2021/05/09 07:28:36;;;;;;;3.97;2.47;;;;;;;28.45;24.96;99756.41;5093729;28;20116;-83
2021/05/09 07:31:10;;;;;;;4.13;2.33;;;;;;;28.00;25.55;99760.53;5093561;28;20066;-84
2021/05/09 07:34:00;;;;;;;3.38;2.38;;;;;;;28.12;25.66;99756.22;5090203;28;20044;-81
2021/05/09 07:36:26;;;;;;;3.25;2.40;;;;;;;28.51;25.00;99747.41;5098171;28;20564;-83
2021/05/09 07:38:53;;;;;;;2.78;2.30;;;;;;;28.91;25.37;99743.81;5093756;28;20089;-79
2021/05/09 07:41:19;;;;;;;3.70;2.13;;;;;;;29.02;24.59;99742.34;5096665;28;20071;-80
2021/05/09 07:43:49;;;;;;;3.90;2.20;;;;;;;29.17;24.89;99742.16;5089975;28;20048;-80
2021/05/09 07:46:19;;;;;;;2.80;1.88;;;;;;;29.31;24.77;99739.25;5097592;28;20075;-87
2021/05/09 07:48:46;;;;;;;3.22;2.10;;;;;;;29.22;24.66;99731.50;5102928;28;20048;-83
2021/05/09 07:51:17;;;;;;;2.55;2.00;;;;;;;28.89;25.46;99735.00;5079986;28;20051;-80
2021/05/09 07:53:43;;;;;;;2.95;1.83;;;;;;;28.84;25.29;99729.31;5089653;28;20171;-82
2021/05/09 07:56:10;;;;;;;3.28;2.00;;;;;;;28.44;25.47;99728.34;5071622;28;20043;-82
2021/05/09 07:58:39;;;;;;;3.53;2.35;;;;;;;28.21;26.13;99722.34;5095592;28;20112;-81
2021/05/09 08:01:05;;;;;;;4.00;1.95;;;;;;;28.56;27.36;99731.31;5097857;28;20068;-83
2021/05/09 08:03:46;;;;;;;2.10;1.90;;;;;;;28.91;25.07;99727.47;5099366;28;20057;-82
2021/05/09 08:06:12;;;;;;;2.88;2.40;;;;;;;28.24;26.25;99711.91;5108939;28;20079;-79
2021/05/09 08:08:39;;;;;;;4.22;1.92;;;;;;;28.53;27.01;99715.38;5108615;28;20066;-79
2021/05/09 08:11:07;;;;;;;2.30;2.10;;;;;;;29.27;26.14;99720.81;5104551;28;20048;-81
2021/05/09 08:13:36;;;;;;;4.93;2.13;;;;;;;29.86;25.49;99714.47;5103014;28;20048;-79
2021/05/09 08:16:05;;;;;;;5.13;2.00;;;;;;;30.46;24.55;99717.88;5095523;28;20116;-81
2021/05/09 08:18:34;;;;;;;2.60;2.20;;;;;;;30.81;23.78;99702.81;5091122;28;20080;-80
2021/05/09 08:21:02;;;;;;;2.05;1.80;;;;;;;30.68;23.71;99708.34;5092625;28;20044;-82
2021/05/09 08:23:30;;;;;;;5.30;2.08;;;;;;;30.38;23.87;99693.56;5094283;28;20071;-83
2021/05/09 08:26:00;;;;;;;2.95;2.10;;;;;;;30.43;24.72;99688.25;5095225;28;20037;-82
2021/05/09 08:28:31;;;;;;;3.70;2.15;;;;;;;30.13;24.35;99683.34;5108954;28;20032;-86
2021/05/09 08:30:59;;;;;;;1.95;1.77;;;;;;;29.41;25.39;99683.50;5108702;28;20048;-88
2021/05/09 08:33:26;;;;;;;3.33;1.70;;;;;;;28.51;26.38;99687.50;5073626;28;20135;-88
2021/05/09 08:35:57;;;;;;;3.22;1.90;;;;;;;27.24;28.25;99676.88;5106984;28;20044;-86
2021/05/09 08:38:38;;;;;;;6.40;2.00;;;;;;;26.12;30.39;99675.66;5099201;28;20542;-87
2021/05/09 08:41:09;;;;;;;4.25;1.95;;;;;;;25.49;32.50;99673.50;5095886;28;20079;-87
2021/05/09 08:43:38;;;;;;;2.17;1.80;;;;;;;24.90;33.06;99673.31;5079376;28;20106;-85
2021/05/09 08:46:05;;;;;;;3.08;2.05;;;;;;;24.06;34.24;99666.03;5096889;28;20067;-85
2021/05/09 08:48:33;;;;;;;3.92;2.10;;;;;;;23.74;35.19;99665.16;5097055;28;20054;-89
2021/05/09 08:51:19;;;;;;;10.20;2.30;;;;;;;23.50;35.67;99664.31;5064089;28;20040;-88
2021/05/09 08:54:01;;;;;;;3.45;2.10;;;;;;;23.33;36.33;99668.91;5093092;28;20054;-86
2021/05/09 08:56:28;;;;;;;2.83;2.10;;;;;;;23.25;36.71;99668.94;5109753;28;20040;-86
2021/05/09 08:58:56;;;;;;;3.75;2.33;;;;;;;23.22;37.07;99663.88;5082439;28;20131;-87
2021/05/09 09:01:39;;;;;;;3.33;1.88;;;;;;;23.15;37.04;99660.16;5106641;28;20040;-87
2021/05/09 09:04:14;;;;;;;2.20;2.00;;;;;;;23.05;37.21;99658.50;5090695;28;20102;-88
2021/05/09 09:06:48;;;;;;;2.72;1.70;;;;;;;23.04;37.65;99661.34;5091340;28;20044;-87
2021/05/09 09:09:25;;;;;;;3.03;1.60;;;;;;;23.10;38.23;99660.69;5096287;28;20123;-88
2021/05/09 09:12:00;;;;;;;3.13;1.75;;;;;;;23.08;38.34;99657.31;5094747;28;20528;-87
2021/05/09 09:14:52;;;;;;;3.00;2.03;;;;;;;23.06;38.23;99662.88;5100007;28;20056;-87
2021/05/09 09:17:24;;;;;;;3.00;1.80;;;;;;;22.95;38.68;99638.09;5101078;28;20040;-87
2021/05/09 09:20:14;;;;;;;4.60;2.00;;;;;;;22.95;38.86;99646.19;5095040;28;20044;-87
2021/05/09 09:23:14;;;;;;;2.78;2.47;;;;;;;22.88;38.68;99639.75;5098885;28;20058;-89
2021/05/09 09:25:57;;;;;;;3.70;2.00;;;;;;;22.82;38.83;99624.25;5093357;28;20486;-88
2021/05/09 09:28:44;;;;;;;1.95;1.63;;;;;;;22.71;39.22;99617.28;5100784;28;20056;-90
2021/05/09 09:31:46;;;;;;;3.85;2.15;;;;;;;22.71;39.57;99614.59;5101435;28;20189;-89
2021/05/09 09:34:40;;;;;;;3.03;1.88;;;;;;;22.74;38.86;99607.00;5083994;28;20095;-88
2021/05/09 09:37:13;;;;;;;4.80;1.73;;;;;;;22.83;39.37;99613.25;5108277;28;20032;-86
2021/05/09 09:39:51;;;;;;;2.80;1.70;;;;;;;22.80;39.58;99607.38;5113818;28;20048;-89
2021/05/09 09:42:59;;;;;;;2.72;1.95;;;;;;;22.90;39.74;99606.19;5110381;28;20058;-86
2021/05/09 09:45:29;;;;;;;3.17;1.88;;;;;;;22.96;39.66;99593.88;5117439;28;20043;-87
2021/05/09 09:48:03;;;;;;;4.05;1.75;;;;;;;23.03;39.53;99594.84;5108906;28;20072;-86
2021/05/09 09:50:40;;;;;;;2.72;1.77;;;;;;;23.23;39.65;99585.38;5088922;28;20495;-87
2021/05/09 09:53:31;;;;;;;2.95;1.80;;;;;;;23.43;39.27;99586.69;5105019;28;20094;-87
2021/05/09 09:56:27;;;;;;;2.03;1.67;;;;;;;23.54;38.79;99581.94;5103428;28;20070;-86
2021/05/09 09:58:57;;;;;;;5.32;1.75;;;;;;;23.65;38.77;99573.44;5102653;28;20051;-85
2021/05/09 10:01:33;;;;;;;2.47;1.50;;;;;;;23.73;39.27;99568.84;5094856;28;20040;-85
2021/05/09 10:04:07;;;;;;;2.00;1.50;;;;;;;23.82;38.66;99556.13;5091147;28;20494;-87
2021/05/09 10:06:48;;;;;;;2.55;1.50;;;;;;;24.01;38.35;99557.53;5095951;28;20046;-87
2021/05/09 10:09:18;;;;;;;1.63;1.50;;;;;;;24.11;38.56;99548.16;5086371;28;20045;-89
2021/05/09 10:12:09;;;;;;;2.83;1.80;;;;;;;24.26;38.50;99555.53;5086066;28;20051;-88
2021/05/09 10:14:49;;;;;;;2.33;1.58;;;;;;;24.33;37.98;99546.53;5107410;28;20155;-88
2021/05/09 10:17:28;;;;;;;2.00;1.58;;;;;;;24.42;37.90;99528.34;5096827;28;20149;-89
2021/05/09 10:19:58;;;;;;;2.03;1.60;;;;;;;24.52;36.09;99510.00;5117787;28;20055;-89
2021/05/09 10:22:37;;;;;;;2.30;1.75;;;;;;;24.81;35.85;99526.31;5111114;28;20048;-88
2021/05/09 10:25:38;;;;;;;1.95;1.70;;;;;;;;;;5107708;28;20048;-88
2021/05/09 10:28:13;;;;;;;2.70;1.58;;;;;;;25.26;34.42;99516.38;5108647;28;20048;-88
2021/05/09 10:30:51;;;;;;;2.15;1.70;;;;;;;25.40;34.34;99512.81;5102003;28;20040;-90
2021/05/09 10:33:42;;;;;;;1.98;1.50;;;;;;;25.52;32.80;99522.13;5079341;28;20105;-87
2021/05/09 10:36:15;;;;;;;2.60;1.52;;;;;;;25.67;32.06;99513.16;5100297;28;20076;-88
2021/05/09 10:39:41;;;;;;;2.00;1.42;;;;;;;25.87;31.73;99519.66;5102189;28;20048;-89
2021/05/09 10:45:07;;;;;;;2.47;1.40;;;;;;;25.96;31.09;99512.28;5095777;23;20074;-90
2021/05/09 10:47:36;;;;;;;3.17;1.50;;;;;;;26.04;30.80;99498.56;5106691;28;20040;-88
2021/05/09 10:50:23;;;;;;;3.05;1.52;;;;;;;26.19;31.15;99502.06;5108220;28;20052;-89
2021/05/09 10:52:53;;;;;;;3.63;1.70;;;;;;;26.30;31.58;99507.00;5122656;28;20071;-90
2021/05/09 10:55:54;;;;;;;1.65;1.55;;;;;;;26.42;30.57;99496.47;5071853;28;20029;-90
2021/05/09 11:09:35;;;;;;;2.70;1.60;;;;;;;26.37;29.21;99471.78;5103277;28;20048;-89
2021/05/09 11:12:09;;;;;;;2.08;1.40;;;;;;;26.33;29.40;99475.91;5106359;28;20407;-87
2021/05/09 11:14:38;;;;;;;3.05;1.50;;;;;;;26.29;29.39;99470.03;5095192;28;20073;-87
2021/05/09 11:17:08;;;;;;;1.80;1.50;;;;;;;26.28;29.67;99462.06;5091228;28;20091;-83
2021/05/09 11:19:40;;;;;;;1.58;1.38;;;;;;;26.24;29.76;99471.63;5093705;28;20075;-86
2021/05/09 11:22:09;;;;;;;2.13;1.60;;;;;;;26.26;29.92;99464.13;5092958;28;20117;-85
2021/05/09 11:24:39;;;;;;;1.80;1.45;;;;;;;26.39;29.90;99453.41;5102067;28;20100;-83
2021/05/09 11:27:08;;;;;;;3.75;1.75;;;;;;;26.50;29.36;99444.72;5099319;28;20131;-83
2021/05/09 11:29:39;;;;;;;2.00;1.50;;;;;;;26.58;29.29;99451.91;5097382;28;20059;-84
2021/05/09 11:32:08;;;;;;;1.48;1.30;;;;;;;26.62;28.77;99451.28;5101858;28;20227;-84
2021/05/09 11:34:35;;;;;;;3.67;1.75;;;;;;;26.54;28.84;99438.72;5097730;28;20047;-83
2021/05/09 11:37:04;;;;;;;2.13;1.40;;;;;;;26.59;29.79;99440.84;5098705;28;20139;-83
2021/05/09 11:39:30;;;;;;;2.58;1.38;;;;;;;26.77;29.29;99438.44;5092373;28;20057;-85
2021/05/09 11:42:15;;;;;;;1.50;1.40;;;;;;;26.90;28.88;99437.69;5098389;28;20123;-84
2021/05/09 11:44:52;;;;;;;3.08;1.30;;;;;;;26.97;28.21;99444.03;5098986;28;20071;-84
2021/05/09 11:47:23;;;;;;;1.98;1.40;;;;;;;26.87;28.58;99440.81;5097977;28;20056;-84
2021/05/09 11:50:00;;;;;;;2.70;1.30;;;;;;;26.88;28.48;99440.63;5094036;28;20059;-88
2021/05/09 11:52:33;;;;;;;3.28;1.42;;;;;;;26.90;28.79;99427.69;5094652;28;20046;-84
2021/05/09 11:55:09;;;;;;;1.80;1.60;;;;;;;26.94;28.84;99425.41;5099305;28;20110;-85
2021/05/09 11:57:37;;;;;;;2.33;1.67;;;;;;;26.99;29.01;99427.53;5095952;28;20340;-83
2021/05/09 12:00:17;;;;;;;1.52;1.20;;;;;;;27.03;28.60;99428.81;5097958;28;20134;-84
2021/05/09 12:02:48;;;;;;;3.67;1.33;;;;;;;27.14;28.71;99418.19;5108171;28;20040;-85
2021/05/09 12:05:27;;;;;;;2.95;1.60;;;;;;;27.16;28.68;99429.72;5105171;28;20055;-84
2021/05/09 12:08:03;;;;;;;2.97;1.45;;;;;;;27.13;28.64;99423.84;5104583;28;20046;-79
2021/05/09 12:10:31;;;;;;;2.78;1.45;;;;;;;27.22;28.22;99425.34;5106455;28;20112;-82
2021/05/09 12:13:05;;;;;;;1.92;1.23;;;;;;;27.39;27.98;99425.84;5112685;28;20028;-82
2021/05/09 12:15:44;;;;;;;2.20;1.35;;;;;;;27.51;28.12;99408.72;5109380;28;20028;-82
2021/05/09 12:18:12;;;;;;;1.48;1.38;;;;;;;27.56;28.46;99408.09;5106499;28;20051;-85
2021/05/09 12:20:45;;;;;;;1.98;1.38;;;;;;;27.51;28.37;99407.88;5109367;28;20052;-84
2021/05/09 12:23:17;;;;;;;2.88;1.63;;;;;;;27.39;28.67;99401.38;5111039;27;20077;-86
2021/05/09 12:25:48;;;;;;;1.67;1.42;;;;;;;27.25;28.40;99387.72;5109736;28;20059;-86
2021/05/09 12:28:19;;;;;;;2.05;1.55;;;;;;;27.27;27.98;99381.22;5112253;28;20051;-87
2021/05/09 12:30:47;;;;;;;3.00;1.20;;;;;;;27.42;28.13;99399.06;5102030;28;20130;-85
2021/05/09 12:33:27;;;;;;;1.20;1.10;;;;;;;27.47;28.14;99387.56;5104112;28;20078;-82
2021/05/09 12:35:58;;;;;;;3.00;1.63;;;;;;;27.49;27.95;99378.19;5108794;27;20104;-85
2021/05/09 12:38:32;;;;;;;1.75;1.15;;;;;;;27.62;27.26;99382.00;5107454;28;20111;-82
2021/05/09 12:41:06;;;;;;;3.58;1.48;;;;;;;27.79;27.19;99386.00;5106459;28;20041;-83
2021/05/09 12:43:55;;;;;;;2.35;1.50;;;;;;;28.03;26.70;99381.81;5096077;28;20059;-84
2021/05/09 12:46:43;;;;;;;3.35;1.27;;;;;;;28.01;26.98;99378.50;5095841;28;20379;-83
2021/05/09 12:49:16;;;;;;;3.90;1.30;;;;;;;28.13;26.68;99372.22;5091099;28;20259;-82
2021/05/09 12:51:59;;;;;;;2.00;1.27;;;;;;;28.24;27.01;99373.47;5096621;28;20075;-89
2021/05/09 12:54:43;;;;;;;2.97;1.48;;;;;;;28.35;26.38;99358.38;5070229;28;20155;-86
2021/05/09 12:58:08;;;;;;;2.35;1.40;;;;;;;28.49;25.80;99360.06;5093037;28;20064;-84
2021/05/09 13:00:35;;;;;;;2.13;1.27;;;;;;;28.56;25.99;99353.53;5050805;28;20059;-86
2021/05/09 13:03:02;;;;;;;1.55;1.40;;;;;;;28.77;25.97;99349.72;5084835;28;20047;-85
2021/05/09 13:05:28;;;;;;;1.30;1.20;;;;;;;28.83;25.77;99348.88;5095193;28;20054;-87
2021/05/09 13:07:54;;;;;;;2.25;1.30;;;;;;;28.97;25.11;99357.81;5091414;28;20459;-85
2021/05/09 13:10:23;;;;;;;1.95;1.10;;;;;;;28.88;25.33;99353.69;5086679;28;20048;-85
2021/05/09 13:12:51;;;;;;;3.67;2.08;;;;;;;28.82;25.26;99346.34;5093412;28;21142;-86
2021/05/09 13:15:19;;;;;;;1.90;1.30;;;;;;;28.83;25.01;99340.69;5094684;28;20052;-87
2021/05/09 13:17:51;;;;;;;3.03;1.38;;;;;;;28.79;25.19;99350.38;5092612;28;20062;-86
2021/05/09 13:20:19;;;;;;;1.60;1.50;;;;;;;28.86;25.02;99337.53;5098878;28;20058;-85
2021/05/09 13:22:49;;;;;;;2.42;1.38;;;;;;;28.81;25.30;99322.88;5094361;28;20055;-87
2021/05/09 13:25:18;;;;;;;2.67;1.45;;;;;;;28.80;25.41;99330.25;5110717;28;20125;-86
2021/05/09 13:27:45;;;;;;;3.10;1.20;;;;;;;28.81;25.75;99317.44;5102174;28;20059;-86
2021/05/09 13:30:15;;;;;;;1.45;1.10;;;;;;;28.90;25.37;99317.00;5106043;28;20040;-83
2021/05/09 13:32:41;;;;;;;1.58;1.08;;;;;;;28.91;24.94;99310.50;5101890;28;20052;-81